sensor_id;sensor_type;location;lat;lon;timestamp;pressure;altitude;pressure_sealevel;temperature;humidity
37852;BME280;23691;52.486;4.650;2023-03-25T00:01:38;99966.34;;;9.92;81.86
37852;BME280;23691;52.486;4.650;2023-03-25T00:04:03;99975.19;;;9.93;81.84
37852;BME280;23691;52.486;4.650;2023-03-25T00:06:30;99967.97;;;9.93;82.04
37852;BME280;23691;52.486;4.650;2023-03-25T00:08:58;99974.34;;;9.92;81.68
37852;BME280;23691;52.486;4.650;2023-03-25T00:11:23;99974.53;;;9.91;82.04
37852;BME280;23691;52.486;4.650;2023-03-25T00:13:49;99970.19;;;9.89;81.78
37852;BME280;23691;52.486;4.650;2023-03-25T00:16:15;99972.56;;;9.84;81.89
37852;BME280;23691;52.486;4.650;2023-03-25T00:18:40;99964.75;;;9.83;81.97
37852;BME280;23691;52.486;4.650;2023-03-25T00:21:07;99962.91;;;9.83;81.92
37852;BME280;23691;52.486;4.650;2023-03-25T00:23:36;99974.78;;;9.81;81.83
37852;BME280;23691;52.486;4.650;2023-03-25T00:26:02;99952.09;;;9.77;82.07
37852;BME280;23691;52.486;4.650;2023-03-25T00:28:30;99954.97;;;9.75;81.79
37852;BME280;23691;52.486;4.650;2023-03-25T00:31:02;99943.63;;;9.73;81.85
37852;BME280;23691;52.486;4.650;2023-03-25T00:33:28;99966.63;;;9.74;81.74
37852;BME280;23691;52.486;4.650;2023-03-25T00:35:54;99954.47;;;9.72;81.68
37852;BME280;23691;52.486;4.650;2023-03-25T00:38:27;99958.53;;;9.67;81.74
37852;BME280;23691;52.486;4.650;2023-03-25T00:41:14;99948.69;;;9.68;81.77
37852;BME280;23691;52.486;4.650;2023-03-25T00:43:48;99955.00;;;9.67;81.81
37852;BME280;23691;52.486;4.650;2023-03-25T00:46:15;99950.34;;;9.69;81.87
37852;BME280;23691;52.486;4.650;2023-03-25T00:48:41;99950.81;;;9.73;81.88
37852;BME280;23691;52.486;4.650;2023-03-25T00:51:07;99952.09;;;9.77;81.94
37852;BME280;23691;52.486;4.650;2023-03-25T00:53:35;99954.97;;;9.75;81.61
37852;BME280;23691;52.486;4.650;2023-03-25T00:56:02;99965.66;;;9.75;81.84
37852;BME280;23691;52.486;4.650;2023-03-25T00:58:27;99950.63;;;9.74;81.76
37852;BME280;23691;52.486;4.650;2023-03-25T01:00:54;99953.66;;;9.71;82.04
37852;BME280;23691;52.486;4.650;2023-03-25T01:03:22;99950.16;;;9.71;81.85
37852;BME280;23691;52.486;4.650;2023-03-25T01:05:48;99948.69;;;9.68;81.97
37852;BME280;23691;52.486;4.650;2023-03-25T01:08:14;99946.84;;;9.68;81.87
37852;BME280;23691;52.486;4.650;2023-03-25T01:10:42;99952.19;;;9.68;81.97
37852;BME280;23691;52.486;4.650;2023-03-25T01:13:08;99959.81;;;9.72;81.97
37852;BME280;23691;52.486;4.650;2023-03-25T01:15:33;99945.47;;;9.73;81.75
37852;BME280;23691;52.486;4.650;2023-03-25T01:17:59;99952.00;;;9.70;81.70
37852;BME280;23691;52.486;4.650;2023-03-25T01:20:24;99950.97;;;9.71;81.65
37852;BME280;23691;52.486;4.650;2023-03-25T01:22:51;99947.00;;;9.67;82.04
37852;BME280;23691;52.486;4.650;2023-03-25T01:25:16;99950.53;;;9.67;82.23
37852;BME280;23691;52.486;4.650;2023-03-25T01:27:42;99941.88;;;9.65;82.21
37852;BME280;23691;52.486;4.650;2023-03-25T01:30:08;99947.19;;;9.65;82.22
37852;BME280;23691;52.486;4.650;2023-03-25T01:32:34;99934.50;;;9.67;82.38
37852;BME280;23691;52.486;4.650;2023-03-25T01:35:00;99934.31;;;9.69;82.61
37852;BME280;23691;52.486;4.650;2023-03-25T01:37:25;99948.69;;;9.68;82.54
37852;BME280;23691;52.486;4.650;2023-03-25T01:39:51;99946.19;;;9.66;82.50
37852;BME280;23691;52.486;4.650;2023-03-25T01:42:17;99921.97;;;9.68;82.50
37852;BME280;23691;52.486;4.650;2023-03-25T01:47:07;99930.00;;;9.68;82.48
37852;BME280;23691;52.486;4.650;2023-03-25T01:49:39;99930.16;;;9.66;83.00
37852;BME280;23691;52.486;4.650;2023-03-25T01:52:13;99932.47;;;9.70;83.07
37852;BME280;23691;52.486;4.650;2023-03-25T01:54:39;99924.81;;;9.66;83.26
37852;BME280;23691;52.486;4.650;2023-03-25T01:57:07;99934.50;;;9.67;83.58
37852;BME280;23691;52.486;4.650;2023-03-25T01:59:34;99946.19;;;9.66;83.61
37852;BME280;23691;52.486;4.650;2023-03-25T02:02:02;99940.19;;;9.64;83.69
37852;BME280;23691;52.486;4.650;2023-03-25T02:04:39;99936.53;;;9.65;83.75
37852;BME280;23691;52.486;4.650;2023-03-25T02:07:08;99932.38;;;9.63;83.91
37852;BME280;23691;52.486;4.650;2023-03-25T02:09:37;99927.84;;;9.63;84.21
37852;BME280;23691;52.486;4.650;2023-03-25T02:12:03;99944.03;;;9.62;84.07
37852;BME280;23691;52.486;4.650;2023-03-25T02:14:31;99919.19;;;9.61;84.06
37852;BME280;23691;52.486;4.650;2023-03-25T02:17:21;99924.53;;;9.61;84.07
37852;BME280;23691;52.486;4.650;2023-03-25T02:28:30;99920.88;;;9.62;84.22
37852;BME280;23691;52.486;4.650;2023-03-25T02:41:50;99909.97;;;9.64;84.32
37852;BME280;23691;52.486;4.650;2023-03-25T02:44:24;99918.19;;;9.62;84.29
37852;BME280;23691;52.486;4.650;2023-03-25T02:46:55;99916.34;;;9.63;84.21
37852;BME280;23691;52.486;4.650;2023-03-25T02:49:33;99916.34;;;9.63;84.44
37852;BME280;23691;52.486;4.650;2023-03-25T02:52:06;99902.34;;;9.61;84.22
37852;BME280;23691;52.486;4.650;2023-03-25T02:54:34;99925.72;;;9.59;84.37
37852;BME280;23691;52.486;4.650;2023-03-25T02:57:01;99900.03;;;9.58;84.45
37852;BME280;23691;52.486;4.650;2023-03-25T02:59:28;99897.38;;;9.58;84.46
37852;BME280;23691;52.486;4.650;2023-03-25T03:01:58;99894.22;;;9.54;84.84
37852;BME280;23691;52.486;4.650;2023-03-25T03:04:25;99908.59;;;9.53;84.79
37852;BME280;23691;52.486;4.650;2023-03-25T03:06:51;99906.75;;;9.54;84.85
37852;BME280;23691;52.486;4.650;2023-03-25T03:09:24;99903.03;;;9.55;84.76
37852;BME280;23691;52.486;4.650;2023-03-25T03:12:33;99897.25;;;9.51;85.03
37852;BME280;23691;52.486;4.650;2023-03-25T03:15:12;99899.47;;;9.48;84.94
37852;BME280;23691;52.486;4.650;2023-03-25T03:20:53;99899.63;;;9.46;85.20
37852;BME280;23691;52.486;4.650;2023-03-25T03:23:30;99895.13;;;9.46;85.35
37852;BME280;23691;52.486;4.650;2023-03-25T03:26:11;99899.63;;;9.46;85.38
37852;BME280;23691;52.486;4.650;2023-03-25T03:28:46;99881.59;;;9.48;85.45
37852;BME280;23691;52.486;4.650;2023-03-25T03:31:22;99888.59;;;9.49;85.33
37852;BME280;23691;52.486;4.650;2023-03-25T03:33:57;99894.28;;;9.46;85.30
37852;BME280;23691;52.486;4.650;2023-03-25T03:36:31;99892.44;;;9.46;85.48
37852;BME280;23691;52.486;4.650;2023-03-25T03:39:20;99890.44;;;9.49;85.35
37852;BME280;23691;52.486;4.650;2023-03-25T03:41:51;99894.13;;;9.48;85.47
37852;BME280;23691;52.486;4.650;2023-03-25T03:44:20;99903.94;;;9.47;85.47
37852;BME280;23691;52.486;4.650;2023-03-25T03:46:52;99903.28;;;9.45;85.47
37852;BME280;23691;52.486;4.650;2023-03-25T03:49:22;99901.66;;;9.44;85.40
37852;BME280;23691;52.486;4.650;2023-03-25T03:52:08;99888.13;;;9.45;85.30
37852;BME280;23691;52.486;4.650;2023-03-25T03:54:51;99892.81;;;9.43;85.65
37852;BME280;23691;52.486;4.650;2023-03-25T03:57:32;99898.63;;;9.47;85.67
37852;BME280;23691;52.486;4.650;2023-03-25T04:02:52;99908.31;;;9.48;85.65
37852;BME280;23691;52.486;4.650;2023-03-25T04:05:22;99897.50;;;9.41;85.53
37852;BME280;23691;52.486;4.650;2023-03-25T04:08:03;99905.34;;;9.43;85.68
37852;BME280;23691;52.486;4.650;2023-03-25T04:13:00;99916.34;;;9.40;85.79
37852;BME280;23691;52.486;4.650;2023-03-25T04:15:26;99917.22;;;9.40;85.79
37852;BME280;23691;52.486;4.650;2023-03-25T04:17:52;99904.84;;;9.39;85.88
37852;BME280;23691;52.486;4.650;2023-03-25T04:20:22;99902.66;;;9.43;85.68
37852;BME280;23691;52.486;4.650;2023-03-25T04:22:50;99909.19;;;9.40;85.77
37852;BME280;23691;52.486;4.650;2023-03-25T04:25:17;99892.81;;;9.43;85.75
37852;BME280;23691;52.486;4.650;2023-03-25T04:27:42;99882.50;;;9.40;85.79
37852;BME280;23691;52.486;4.650;2023-03-25T04:30:10;99899.50;;;9.39;85.60
37852;BME280;23691;52.486;4.650;2023-03-25T04:32:35;99897.88;;;9.38;85.72
37852;BME280;23691;52.486;4.650;2023-03-25T04:35:01;99898.53;;;9.40;85.73
37852;BME280;23691;52.486;4.650;2023-03-25T04:37:27;99903.88;;;9.40;85.92
37852;BME280;23691;52.486;4.650;2023-03-25T04:39:53;99900.34;;;9.40;85.74
37852;BME280;23691;52.486;4.650;2023-03-25T04:42:21;99907.34;;;9.41;85.61
37852;BME280;23691;52.486;4.650;2023-03-25T04:44:50;99908.34;;;9.40;85.61
37852;BME280;23691;52.486;4.650;2023-03-25T04:47:20;99908.34;;;9.40;85.37
37852;BME280;23691;52.486;4.650;2023-03-25T04:49:47;99922.72;;;9.39;85.30
37852;BME280;23691;52.486;4.650;2023-03-25T04:52:13;99924.56;;;9.38;85.17
37852;BME280;23691;52.486;4.650;2023-03-25T04:54:38;99905.88;;;9.38;85.06
37852;BME280;23691;52.486;4.650;2023-03-25T04:57:04;99900.91;;;9.35;84.91
37852;BME280;23691;52.486;4.650;2023-03-25T04:59:30;99916.59;;;9.30;84.97
37852;BME280;23691;52.486;4.650;2023-03-25T05:01:55;99912.28;;;9.29;85.16
37852;BME280;23691;52.486;4.650;2023-03-25T05:04:21;99916.16;;;9.27;85.07
37852;BME280;23691;52.486;4.650;2023-03-25T05:06:49;99916.97;;;9.27;84.73
37852;BME280;23691;52.486;4.650;2023-03-25T05:09:19;99920.66;;;9.26;84.70
37852;BME280;23691;52.486;4.650;2023-03-25T05:11:49;99915.47;;;9.24;84.75
37852;BME280;23691;52.486;4.650;2023-03-25T05:14:17;99916.50;;;9.23;84.80
37852;BME280;23691;52.486;4.650;2023-03-25T05:16:44;99925.34;;;9.24;84.75
37852;BME280;23691;52.486;4.650;2023-03-25T05:19:10;99919.19;;;9.23;84.66
37852;BME280;23691;52.486;4.650;2023-03-25T05:21:37;99928.00;;;9.24;84.63
37852;BME280;23691;52.486;4.650;2023-03-25T05:24:04;99934.16;;;9.24;84.41
37852;BME280;23691;52.486;4.650;2023-03-25T05:26:32;99927.84;;;9.26;84.14
37852;BME280;23691;52.486;4.650;2023-03-25T05:29:10;99935.84;;;9.26;84.13
37852;BME280;23691;52.486;4.650;2023-03-25T05:31:42;99927.84;;;9.26;84.14
37852;BME280;23691;52.486;4.650;2023-03-25T05:34:12;99926.66;;;9.28;83.58
37852;BME280;23691;52.486;4.650;2023-03-25T05:36:39;99931.13;;;9.28;83.81
37852;BME280;23691;52.486;4.650;2023-03-25T05:39:04;99932.81;;;9.29;83.94
37852;BME280;23691;52.486;4.650;2023-03-25T05:41:30;99942.09;;;9.33;83.86
37852;BME280;23691;52.486;4.650;2023-03-25T05:44:06;99938.44;;;9.34;83.77
37852;BME280;23691;52.486;4.650;2023-03-25T05:46:31;99933.28;;;9.32;83.73
37852;BME280;23691;52.486;4.650;2023-03-25T05:48:57;99932.09;;;9.35;83.71
37852;BME280;23691;52.486;4.650;2023-03-25T05:51:25;99950.78;;;9.35;83.70
37852;BME280;23691;52.486;4.650;2023-03-25T05:53:51;99957.59;;;9.37;83.60
37852;BME280;23691;52.486;4.650;2023-03-25T05:56:19;99943.63;;;9.35;83.96
37852;BME280;23691;52.486;4.650;2023-03-25T05:58:46;99956.31;;;9.33;84.05
37852;BME280;23691;52.486;4.650;2023-03-25T06:01:12;99954.28;;;9.35;84.11
37852;BME280;23691;52.486;4.650;2023-03-25T06:03:39;99973.81;;;9.36;84.04
37852;BME280;23691;52.486;4.650;2023-03-25T06:06:06;99965.13;;;9.34;84.04
37852;BME280;23691;52.486;4.650;2023-03-25T06:08:38;99953.81;;;9.32;84.35
37852;BME280;23691;52.486;4.650;2023-03-25T06:11:04;99973.03;;;9.27;84.44
37852;BME280;23691;52.486;4.650;2023-03-25T06:13:29;99967.50;;;9.29;84.54
37852;BME280;23691;52.486;4.650;2023-03-25T06:15:57;99970.53;;;9.26;84.31
37852;BME280;23691;52.486;4.650;2023-03-25T06:18:24;99965.00;;;9.27;84.77
37852;BME280;23691;52.486;4.650;2023-03-25T06:20:51;99971.31;;;9.34;84.39
37852;BME280;23691;52.486;4.650;2023-03-25T06:23:18;99970.78;;;9.39;84.42
37852;BME280;23691;52.486;4.650;2023-03-25T06:25:43;99962.59;;;9.40;84.29
37852;BME280;23691;52.486;4.650;2023-03-25T06:28:08;99963.06;;;9.44;83.95
37852;BME280;23691;52.486;4.650;2023-03-25T06:30:34;99960.69;;;9.49;83.95
37852;BME280;23691;52.486;4.650;2023-03-25T06:32:59;99958.66;;;9.51;83.69
37852;BME280;23691;52.486;4.650;2023-03-25T06:35:27;99969.81;;;9.55;83.64
37852;BME280;23691;52.486;4.650;2023-03-25T06:37:53;99962.44;;;9.57;83.66
37852;BME280;23691;52.486;4.650;2023-03-25T06:40:18;99971.94;;;9.59;83.09
37852;BME280;23691;52.486;4.650;2023-03-25T06:42:44;99966.25;;;9.62;82.93
37852;BME280;23691;52.486;4.650;2023-03-25T06:45:10;99975.19;;;9.70;82.44
37852;BME280;23691;52.486;4.650;2023-03-25T06:47:37;99972.84;;;9.75;81.94
37852;BME280;23691;52.486;4.650;2023-03-25T06:50:03;99975.59;;;9.81;81.72
37852;BME280;23691;52.486;4.650;2023-03-25T06:52:28;99976.41;;;9.82;81.26
37852;BME280;23691;52.486;4.650;2023-03-25T06:54:54;99984.16;;;9.77;80.95
37852;BME280;23691;52.486;4.650;2023-03-25T06:57:19;99957.91;;;9.80;80.99
37852;BME280;23691;52.486;4.650;2023-03-25T06:59:45;99987.09;;;9.82;80.65
37852;BME280;23691;52.486;4.650;2023-03-25T07:02:12;99980.13;;;9.81;80.33
37852;BME280;23691;52.486;4.650;2023-03-25T07:04:38;99969.25;;;9.82;80.25
37852;BME280;23691;52.486;4.650;2023-03-25T07:07:04;99986.56;;;9.86;80.38
37852;BME280;23691;52.486;4.650;2023-03-25T07:09:29;99993.59;;;9.87;79.86
37852;BME280;23691;52.486;4.650;2023-03-25T07:11:55;99979.41;;;9.87;80.06
37852;BME280;23691;52.486;4.650;2023-03-25T07:14:20;99974.88;;;9.87;79.84
37852;BME280;23691;52.486;4.650;2023-03-25T07:16:46;99972.56;;;9.84;79.73
37852;BME280;23691;52.486;4.650;2023-03-25T07:19:11;99978.38;;;9.88;79.66
37852;BME280;23691;52.486;4.650;2023-03-25T07:21:36;99978.31;;;9.96;79.55
37852;BME280;23691;52.486;4.650;2023-03-25T07:24:02;99981.25;;;10.01;79.09
37852;BME280;23691;52.486;4.650;2023-03-25T07:26:27;99983.88;;;10.09;78.87
37852;BME280;23691;52.486;4.650;2023-03-25T07:28:52;99989.94;;;10.18;78.48
37852;BME280;23691;52.486;4.650;2023-03-25T07:31:18;99985.34;;;10.27;78.09
37852;BME280;23691;52.486;4.650;2023-03-25T07:33:43;99990.81;;;10.34;77.97
37852;BME280;23691;52.486;4.650;2023-03-25T07:36:10;99991.66;;;10.34;77.62
37852;BME280;23691;52.486;4.650;2023-03-25T07:38:36;99989.16;;;10.32;78.23
37852;BME280;23691;52.486;4.650;2023-03-25T07:41:06;99981.31;;;10.31;78.18
37852;BME280;23691;52.486;4.650;2023-03-25T07:43:31;99997.94;;;10.41;78.26
37852;BME280;23691;52.486;4.650;2023-03-25T07:45:57;99995.88;;;10.58;77.71
37852;BME280;23691;52.486;4.650;2023-03-25T07:48:22;99999.59;;;10.57;77.34
37852;BME280;23691;52.486;4.650;2023-03-25T07:50:50;100000.69;;;10.63;77.09
37852;BME280;23691;52.486;4.650;2023-03-25T07:53:16;100008.53;;;10.79;76.72
37852;BME280;23691;52.486;4.650;2023-03-25T07:55:41;100006.22;;;10.91;76.77
37852;BME280;23691;52.486;4.650;2023-03-25T07:58:07;99999.28;;;10.96;76.42
37852;BME280;23691;52.486;4.650;2023-03-25T08:00:32;99997.59;;;11.10;76.27
37852;BME280;23691;52.486;4.650;2023-03-25T08:02:58;99987.78;;;11.17;75.90
37852;BME280;23691;52.486;4.650;2023-03-25T08:05:23;100010.69;;;11.20;75.01
37852;BME280;23691;52.486;4.650;2023-03-25T08:07:50;100010.94;;;11.25;74.95
37852;BME280;23691;52.486;4.650;2023-03-25T08:10:16;100008.34;;;11.17;74.56
37852;BME280;23691;52.486;4.650;2023-03-25T08:12:42;100011.91;;;11.03;74.84
37852;BME280;23691;52.486;4.650;2023-03-25T08:15:09;100015.59;;;11.02;75.40
37852;BME280;23691;52.486;4.650;2023-03-25T08:17:36;100029.81;;;11.02;75.75
37852;BME280;23691;52.486;4.650;2023-03-25T08:20:02;100030.16;;;11.14;75.54
37852;BME280;23691;52.486;4.650;2023-03-25T08:22:29;100038.66;;;11.17;75.56
37852;BME280;23691;52.486;4.650;2023-03-25T08:24:54;100035.28;;;11.30;75.13
37852;BME280;23691;52.486;4.650;2023-03-25T08:27:20;100029.38;;;11.35;74.94
37852;BME280;23691;52.486;4.650;2023-03-25T08:29:45;100028.34;;;11.36;74.73
37852;BME280;23691;52.486;4.650;2023-03-25T08:32:26;100031.19;;;11.34;74.65
37852;BME280;23691;52.486;4.650;2023-03-25T08:34:52;100043.34;;;11.30;74.23
37852;BME280;23691;52.486;4.650;2023-03-25T08:37:18;100036.94;;;11.31;73.80
37852;BME280;23691;52.486;4.650;2023-03-25T08:39:44;100041.28;;;11.32;73.80
37852;BME280;23691;52.486;4.650;2023-03-25T08:42:11;100032.16;;;11.27;74.05
37852;BME280;23691;52.486;4.650;2023-03-25T08:44:37;100037.19;;;11.36;73.37
37852;BME280;23691;52.486;4.650;2023-03-25T08:47:02;100043.53;;;11.50;72.89
37852;BME280;23691;52.486;4.650;2023-03-25T08:49:28;100029.44;;;11.63;72.75
37852;BME280;23691;52.486;4.650;2023-03-25T08:51:53;100045.38;;;11.71;72.53
37852;BME280;23691;52.486;4.650;2023-03-25T08:54:21;100044.38;;;11.72;72.17
37852;BME280;23691;52.486;4.650;2023-03-25T08:56:47;100050.31;;;11.68;71.64
37852;BME280;23691;52.486;4.650;2023-03-25T08:59:12;100048.47;;;11.68;71.81
37852;BME280;23691;52.486;4.650;2023-03-25T09:01:38;100044.81;;;11.76;71.46
37852;BME280;23691;52.486;4.650;2023-03-25T09:04:04;100046.47;;;11.92;71.44
37852;BME280;23691;52.486;4.650;2023-03-25T09:06:29;100047.13;;;12.00;71.13
37852;BME280;23691;52.486;4.650;2023-03-25T09:08:55;100041.03;;;12.13;70.81
37852;BME280;23691;52.486;4.650;2023-03-25T09:11:20;100030.88;;;12.30;70.47
37852;BME280;23691;52.486;4.650;2023-03-25T09:13:46;100031.50;;;12.32;70.31
37852;BME280;23691;52.486;4.650;2023-03-25T09:16:11;100037.78;;;12.18;70.21
37852;BME280;23691;52.486;4.650;2023-03-25T09:18:36;100057.09;;;12.07;70.19
37852;BME280;23691;52.486;4.650;2023-03-25T09:21:02;100043.44;;;12.01;69.75
37852;BME280;23691;52.486;4.650;2023-03-25T09:23:28;100045.16;;;12.09;69.97
37852;BME280;23691;52.486;4.650;2023-03-25T09:25:53;100047.91;;;12.16;69.34
37852;BME280;23691;52.486;4.650;2023-03-25T09:28:19;100044.19;;;12.17;69.40
37852;BME280;23691;52.486;4.650;2023-03-25T09:30:44;100053.75;;;12.26;69.00
37852;BME280;23691;52.486;4.650;2023-03-25T09:33:10;100064.00;;;12.44;68.76
37852;BME280;23691;52.486;4.650;2023-03-25T09:35:38;100047.88;;;12.44;68.48
37852;BME280;23691;52.486;4.650;2023-03-25T09:38:03;100082.75;;;12.44;68.23
37852;BME280;23691;52.486;4.650;2023-03-25T09:40:30;100066.16;;;12.55;68.19
37852;BME280;23691;52.486;4.650;2023-03-25T09:45:44;100080.47;;;12.69;67.39
37852;BME280;23691;52.486;4.650;2023-03-25T09:48:30;100075.19;;;12.54;67.45
37852;BME280;23691;52.486;4.650;2023-03-25T09:51:04;100080.38;;;12.56;67.75
37852;BME280;23691;52.486;4.650;2023-03-25T09:56:23;100077.66;;;12.84;66.85
37852;BME280;23691;52.486;4.650;2023-03-25T09:59:03;100084.72;;;12.92;66.85
37852;BME280;23691;52.486;4.650;2023-03-25T10:10:00;100090.25;;;13.25;66.26
37852;BME280;23691;52.486;4.650;2023-03-25T10:18:09;100087.47;;;13.53;65.94
37852;BME280;23691;52.486;4.650;2023-03-25T10:23:36;100112.34;;;13.62;65.12
37852;BME280;23691;52.486;4.650;2023-03-25T10:26:07;100111.06;;;13.58;65.25
37852;BME280;23691;52.486;4.650;2023-03-25T10:28:39;100111.06;;;13.58;65.12
37852;BME280;23691;52.486;4.650;2023-03-25T10:31:12;100106.13;;;13.61;64.76
37852;BME280;23691;52.486;4.650;2023-03-25T10:33:45;100119.19;;;13.78;64.31
37852;BME280;23691;52.486;4.650;2023-03-25T10:36:16;100115.47;;;13.72;64.29
37852;BME280;23691;52.486;4.650;2023-03-25T10:38:45;100114.22;;;13.74;64.23
37852;BME280;23691;52.486;4.650;2023-03-25T10:41:32;100118.72;;;13.61;64.12
37852;BME280;23691;52.486;4.650;2023-03-25T10:44:10;100119.75;;;13.60;64.20
37852;BME280;23691;52.486;4.650;2023-03-25T10:49:19;100133.22;;;13.60;63.91
37852;BME280;23691;52.486;4.650;2023-03-25T10:51:47;100126.41;;;13.64;63.71
37852;BME280;23691;52.486;4.650;2023-03-25T10:54:14;100134.69;;;13.69;63.97
37852;BME280;23691;52.486;4.650;2023-03-25T10:56:44;100118.28;;;13.50;64.11
37852;BME280;23691;52.486;4.650;2023-03-25T10:59:22;100121.53;;;13.32;64.32
37852;BME280;23691;52.486;4.650;2023-03-25T11:01:50;100128.22;;;13.15;64.87
37852;BME280;23691;52.486;4.650;2023-03-25T11:04:18;100127.59;;;13.13;64.96
37852;BME280;23691;52.486;4.650;2023-03-25T11:06:50;100134.72;;;13.27;65.30
37852;BME280;23691;52.486;4.650;2023-03-25T11:09:26;100123.44;;;13.45;64.68
37852;BME280;23691;52.486;4.650;2023-03-25T11:11:59;100134.84;;;13.54;64.13
37852;BME280;23691;52.486;4.650;2023-03-25T11:14:27;100133.22;;;13.60;64.67
37852;BME280;23691;52.486;4.650;2023-03-25T11:16:54;100146.25;;;13.69;64.38
37852;BME280;23691;52.486;4.650;2023-03-25T11:19:38;100146.03;;;13.64;64.24
37852;BME280;23691;52.486;4.650;2023-03-25T11:22:30;100128.41;;;13.48;64.46
37852;BME280;23691;52.486;4.650;2023-03-25T11:25:00;100145.84;;;13.24;64.40
37852;BME280;23691;52.486;4.650;2023-03-25T11:27:28;100146.22;;;13.21;64.43
37852;BME280;23691;52.486;4.650;2023-03-25T11:30:06;100140.16;;;13.06;64.90
37852;BME280;23691;52.486;4.650;2023-03-25T11:32:39;100138.09;;;13.08;65.02
37852;BME280;23691;52.486;4.650;2023-03-25T11:35:21;100151.56;;;13.15;64.94
37852;BME280;23691;52.486;4.650;2023-03-25T11:37:54;100137.94;;;13.16;65.15
37852;BME280;23691;52.486;4.650;2023-03-25T11:40:20;100138.75;;;13.17;65.25
37852;BME280;23691;52.486;4.650;2023-03-25T11:42:51;100136.94;;;13.24;65.22
37852;BME280;23691;52.486;4.650;2023-03-25T11:45:37;100144.50;;;13.42;64.89
37852;BME280;23691;52.486;4.650;2023-03-25T11:48:17;100148.50;;;13.59;64.49
37852;BME280;23691;52.486;4.650;2023-03-25T11:51:11;100137.31;;;13.56;64.22
37852;BME280;23691;52.486;4.650;2023-03-25T11:53:36;100134.84;;;13.61;64.17
37852;BME280;23691;52.486;4.650;2023-03-25T11:56:15;100148.75;;;13.78;64.07
37852;BME280;23691;52.486;4.650;2023-03-25T11:58:41;100122.56;;;14.06;63.13
37852;BME280;23691;52.486;4.650;2023-03-25T12:01:21;100148.25;;;14.29;62.43
37852;BME280;23691;52.486;4.650;2023-03-25T12:03:48;100128.38;;;14.23;62.17
37852;BME280;23691;52.486;4.650;2023-03-25T12:06:20;100141.41;;;14.26;62.15
37852;BME280;23691;52.486;4.650;2023-03-25T12:08:51;100149.47;;;14.13;62.64
37852;BME280;23691;52.486;4.650;2023-03-25T12:16:46;100146.09;;;13.84;62.99
37852;BME280;23691;52.486;4.650;2023-03-25T12:35:48;100149.69;;;14.11;62.88
37852;BME280;23691;52.486;4.650;2023-03-25T12:38:30;100142.00;;;14.02;63.23
37852;BME280;23691;52.486;4.650;2023-03-25T12:41:27;100140.16;;;14.09;62.82
37852;BME280;23691;52.486;4.650;2023-03-25T12:52:58;100146.81;;;14.53;61.08
37852;BME280;23691;52.486;4.650;2023-03-25T12:55:28;100142.06;;;14.68;60.98
37852;BME280;23691;52.486;4.650;2023-03-25T13:03:39;100145.59;;;14.55;60.14
37852;BME280;23691;52.486;4.650;2023-03-25T13:08:54;100164.38;;;14.22;60.97
37852;BME280;23691;52.486;4.650;2023-03-25T13:11:26;100166.00;;;14.10;60.89
37852;BME280;23691;52.486;4.650;2023-03-25T13:13:56;100158.16;;;14.15;61.07
37852;BME280;23691;52.486;4.650;2023-03-25T13:16:26;100150.09;;;14.08;61.31
37852;BME280;23691;52.486;4.650;2023-03-25T13:19:00;100178.81;;;13.94;61.17
37852;BME280;23691;52.486;4.650;2023-03-25T13:21:38;100175.72;;;13.91;60.94
37852;BME280;23691;52.486;4.650;2023-03-25T13:24:10;100173.88;;;13.98;61.04
37852;BME280;23691;52.486;4.650;2023-03-25T13:26:43;100182.53;;;14.00;60.66
37852;BME280;23691;52.486;4.650;2023-03-25T13:29:29;100187.53;;;14.03;60.55
37852;BME280;23691;52.486;4.650;2023-03-25T13:32:02;100179.47;;;14.10;61.09
37852;BME280;23691;52.486;4.650;2023-03-25T13:34:53;100187.47;;;13.83;61.80
37852;BME280;23691;52.486;4.650;2023-03-25T13:37:24;100195.28;;;13.71;62.34
37852;BME280;23691;52.486;4.650;2023-03-25T13:45:22;100200.97;;;13.20;63.38
37852;BME280;23691;52.486;4.650;2023-03-25T13:48:17;100198.75;;;12.96;63.81
37852;BME280;23691;52.486;4.650;2023-03-25T13:50:46;100199.00;;;12.73;64.59
37852;BME280;23691;52.486;4.650;2023-03-25T14:01:52;100243.09;;;12.06;67.43
37852;BME280;23691;52.486;4.650;2023-03-25T14:07:35;100280.88;;;11.59;71.40
37852;BME280;23691;52.486;4.650;2023-03-25T14:12:48;100268.63;;;11.12;72.92
37852;BME280;23691;52.486;4.650;2023-03-25T14:15:30;100265.28;;;10.95;73.71
37852;BME280;23691;52.486;4.650;2023-03-25T14:17:58;100269.25;;;10.77;72.85
37852;BME280;23691;52.486;4.650;2023-03-25T14:20:35;100274.03;;;10.66;72.64
37852;BME280;23691;52.486;4.650;2023-03-25T14:23:05;100266.41;;;10.55;71.96
37852;BME280;23691;52.486;4.650;2023-03-25T14:25:37;100285.50;;;10.52;72.37
37852;BME280;23691;52.486;4.650;2023-03-25T14:28:04;100284.59;;;10.60;73.29
37852;BME280;23691;52.486;4.650;2023-03-25T14:30:31;100284.53;;;10.68;74.12
37852;BME280;23691;52.486;4.650;2023-03-25T14:32:58;100275.31;;;10.70;75.28
37852;BME280;23691;52.486;4.650;2023-03-25T14:54:01;100307.28;;;11.10;72.18
37852;BME280;23691;52.486;4.650;2023-03-25T14:56:41;100308.09;;;10.95;72.47
37852;BME280;23691;52.486;4.650;2023-03-25T14:59:12;100316.22;;;11.02;72.45
37852;BME280;23691;52.486;4.650;2023-03-25T15:01:40;100309.91;;;11.18;72.14
37852;BME280;23691;52.486;4.650;2023-03-25T15:04:14;100318.06;;;11.39;72.19
37852;BME280;23691;52.486;4.650;2023-03-25T15:06:42;100322.22;;;11.42;72.45
37852;BME280;23691;52.486;4.650;2023-03-25T15:09:11;100327.50;;;11.50;72.20
37852;BME280;23691;52.486;4.650;2023-03-25T15:11:44;100328.31;;;11.36;71.90
37852;BME280;23691;52.486;4.650;2023-03-25T15:14:19;100333.19;;;11.17;72.76
37852;BME280;23691;52.486;4.650;2023-03-25T15:19:14;100341.75;;;11.13;71.80
37852;BME280;23691;52.486;4.650;2023-03-25T15:24:38;100327.91;;;11.24;71.27
37852;BME280;23691;52.486;4.650;2023-03-25T15:27:26;100337.78;;;11.24;71.63
37852;BME280;23691;52.486;4.650;2023-03-25T15:35:57;100354.94;;;11.14;72.70
37852;BME280;23691;52.486;4.650;2023-03-25T15:44:27;100392.06;;;10.94;74.13